sensor_id;sensor_type;location;lat;lon;timestamp;P1;durP1;ratioP1;P2;durP2;ratioP2
4049;SDS011;2039;50.894;6.888;2024-02-26T00:01:39;14.57;;;1.70;;
4049;SDS011;2039;50.894;6.888;2024-02-26T00:04:05;14.60;;;1.80;;
4049;SDS011;2039;50.894;6.888;2024-02-26T00:06:31;14.27;;;1.43;;
4049;SDS011;2039;50.894;6.888;2024-02-26T00:08:57;14.27;;;2.00;;
4049;SDS011;2039;50.894;6.888;2024-02-26T00:11:23;13.77;;;1.63;;
4049;SDS011;2039;50.894;6.888;2024-02-26T00:13:49;14.87;;;1.80;;
4049;SDS011;2039;50.894;6.888;2024-02-26T00:16:14;14.40;;;1.73;;
4049;SDS011;2039;50.894;6.888;2024-02-26T00:18:40;14.40;;;1.50;;
4049;SDS011;2039;50.894;6.888;2024-02-26T00:21:06;14.50;;;1.87;;
4049;SDS011;2039;50.894;6.888;2024-02-26T00:23:31;14.53;;;1.80;;
4049;SDS011;2039;50.894;6.888;2024-02-26T00:25:57;14.70;;;1.63;;
4049;SDS011;2039;50.894;6.888;2024-02-26T00:28:23;15.90;;;1.90;;
4049;SDS011;2039;50.894;6.888;2024-02-26T00:30:50;14.25;;;1.40;;
4049;SDS011;2039;50.894;6.888;2024-02-26T00:33:20;14.50;;;1.80;;
4049;SDS011;2039;50.894;6.888;2024-02-26T00:35:47;16.65;;;1.75;;
4049;SDS011;2039;50.894;6.888;2024-02-26T00:38:13;14.50;;;1.42;;
4049;SDS011;2039;50.894;6.888;2024-02-26T00:40:39;14.50;;;1.53;;
4049;SDS011;2039;50.894;6.888;2024-02-26T00:43:05;13.98;;;1.60;;
4049;SDS011;2039;50.894;6.888;2024-02-26T00:45:31;14.93;;;1.90;;
4049;SDS011;2039;50.894;6.888;2024-02-26T00:47:58;15.27;;;1.30;;
4049;SDS011;2039;50.894;6.888;2024-02-26T00:50:26;14.60;;;1.67;;
4049;SDS011;2039;50.894;6.888;2024-02-26T00:52:52;14.90;;;1.60;;
4049;SDS011;2039;50.894;6.888;2024-02-26T00:55:17;14.27;;;1.30;;
4049;SDS011;2039;50.894;6.888;2024-02-26T00:57:43;14.17;;;1.17;;
4049;SDS011;2039;50.894;6.888;2024-02-26T01:00:09;14.10;;;1.30;;
4049;SDS011;2039;50.894;6.888;2024-02-26T01:02:35;14.40;;;1.50;;
4049;SDS011;2039;50.894;6.888;2024-02-26T01:05:01;15.43;;;1.43;;
4049;SDS011;2039;50.894;6.888;2024-02-26T01:07:27;13.93;;;1.63;;
4049;SDS011;2039;50.894;6.888;2024-02-26T01:09:53;13.93;;;1.40;;
4049;SDS011;2039;50.894;6.888;2024-02-26T01:12:18;23.13;;;1.60;;
4049;SDS011;2039;50.894;6.888;2024-02-26T01:14:44;14.10;;;1.40;;
4049;SDS011;2039;50.894;6.888;2024-02-26T01:17:09;14.00;;;1.37;;
4049;SDS011;2039;50.894;6.888;2024-02-26T01:19:35;13.80;;;1.50;;
4049;SDS011;2039;50.894;6.888;2024-02-26T01:22:01;13.63;;;1.30;;
4049;SDS011;2039;50.894;6.888;2024-02-26T01:24:26;16.47;;;1.57;;
4049;SDS011;2039;50.894;6.888;2024-02-26T01:26:52;14.10;;;1.40;;
4049;SDS011;2039;50.894;6.888;2024-02-26T01:29:18;13.47;;;1.20;;
4049;SDS011;2039;50.894;6.888;2024-02-26T01:31:44;16.93;;;1.40;;
4049;SDS011;2039;50.894;6.888;2024-02-26T01:34:09;13.67;;;1.30;;
4049;SDS011;2039;50.894;6.888;2024-02-26T01:36:35;15.10;;;1.88;;
4049;SDS011;2039;50.894;6.888;2024-02-26T01:39:01;14.00;;;1.50;;
4049;SDS011;2039;50.894;6.888;2024-02-26T01:41:28;14.20;;;1.30;;
4049;SDS011;2039;50.894;6.888;2024-02-26T01:43:54;14.50;;;1.87;;
4049;SDS011;2039;50.894;6.888;2024-02-26T01:46:19;14.70;;;1.37;;
4049;SDS011;2039;50.894;6.888;2024-02-26T01:48:45;19.67;;;1.50;;
4049;SDS011;2039;50.894;6.888;2024-02-26T01:51:12;13.80;;;1.45;;
4049;SDS011;2039;50.894;6.888;2024-02-26T01:53:40;14.23;;;1.60;;
4049;SDS011;2039;50.894;6.888;2024-02-26T01:56:06;13.30;;;1.13;;
4049;SDS011;2039;50.894;6.888;2024-02-26T01:58:33;14.65;;;1.10;;
4049;SDS011;2039;50.894;6.888;2024-02-26T02:01:00;13.85;;;1.33;;
4049;SDS011;2039;50.894;6.888;2024-02-26T02:03:26;13.40;;;1.10;;
4049;SDS011;2039;50.894;6.888;2024-02-26T02:05:53;13.15;;;1.20;;
4049;SDS011;2039;50.894;6.888;2024-02-26T02:08:19;14.87;;;1.30;;
4049;SDS011;2039;50.894;6.888;2024-02-26T02:10:45;14.70;;;1.30;;
4049;SDS011;2039;50.894;6.888;2024-02-26T02:13:12;14.00;;;1.15;;
4049;SDS011;2039;50.894;6.888;2024-02-26T02:15:39;13.45;;;1.20;;
4049;SDS011;2039;50.894;6.888;2024-02-26T02:18:05;13.90;;;1.30;;
4049;SDS011;2039;50.894;6.888;2024-02-26T02:20:31;13.45;;;1.27;;
4049;SDS011;2039;50.894;6.888;2024-02-26T02:22:59;14.35;;;1.10;;
4049;SDS011;2039;50.894;6.888;2024-02-26T02:25:24;13.10;;;1.10;;
4049;SDS011;2039;50.894;6.888;2024-02-26T02:27:50;14.40;;;1.40;;
4049;SDS011;2039;50.894;6.888;2024-02-26T02:30:18;16.35;;;1.35;;
4049;SDS011;2039;50.894;6.888;2024-02-26T02:32:44;13.30;;;1.08;;
4049;SDS011;2039;50.894;6.888;2024-02-26T02:35:10;13.57;;;1.20;;
4049;SDS011;2039;50.894;6.888;2024-02-26T02:37:36;14.83;;;1.07;;
4049;SDS011;2039;50.894;6.888;2024-02-26T02:40:02;16.35;;;1.40;;
4049;SDS011;2039;50.894;6.888;2024-02-26T02:42:28;15.65;;;1.40;;
4049;SDS011;2039;50.894;6.888;2024-02-26T02:44:53;13.77;;;1.30;;
4049;SDS011;2039;50.894;6.888;2024-02-26T02:47:22;14.77;;;1.20;;
4049;SDS011;2039;50.894;6.888;2024-02-26T02:49:48;13.32;;;1.25;;
4049;SDS011;2039;50.894;6.888;2024-02-26T02:52:13;13.27;;;1.20;;
4049;SDS011;2039;50.894;6.888;2024-02-26T02:54:39;13.70;;;1.67;;
4049;SDS011;2039;50.894;6.888;2024-02-26T02:57:06;14.57;;;1.38;;
4049;SDS011;2039;50.894;6.888;2024-02-26T02:59:36;13.40;;;1.23;;
4049;SDS011;2039;50.894;6.888;2024-02-26T03:02:02;14.13;;;1.10;;
4049;SDS011;2039;50.894;6.888;2024-02-26T03:04:28;13.80;;;1.33;;
4049;SDS011;2039;50.894;6.888;2024-02-26T03:06:54;13.55;;;1.35;;
4049;SDS011;2039;50.894;6.888;2024-02-26T03:09:23;14.53;;;1.17;;
4049;SDS011;2039;50.894;6.888;2024-02-26T03:11:49;14.23;;;1.10;;
4049;SDS011;2039;50.894;6.888;2024-02-26T03:14:14;13.27;;;1.10;;
4049;SDS011;2039;50.894;6.888;2024-02-26T03:16:40;13.95;;;1.10;;
4049;SDS011;2039;50.894;6.888;2024-02-26T03:19:06;14.15;;;1.48;;
4049;SDS011;2039;50.894;6.888;2024-02-26T03:21:32;13.23;;;1.03;;
4049;SDS011;2039;50.894;6.888;2024-02-26T03:24:00;14.18;;;1.60;;
4049;SDS011;2039;50.894;6.888;2024-02-26T03:26:26;13.70;;;1.50;;
4049;SDS011;2039;50.894;6.888;2024-02-26T03:28:52;14.00;;;1.33;;
4049;SDS011;2039;50.894;6.888;2024-02-26T03:31:18;16.57;;;1.70;;
4049;SDS011;2039;50.894;6.888;2024-02-26T03:33:44;14.20;;;1.70;;
4049;SDS011;2039;50.894;6.888;2024-02-26T03:36:10;14.63;;;1.50;;
4049;SDS011;2039;50.894;6.888;2024-02-26T03:38:36;13.63;;;1.20;;
4049;SDS011;2039;50.894;6.888;2024-02-26T03:41:02;14.60;;;1.65;;
4049;SDS011;2039;50.894;6.888;2024-02-26T03:43:28;13.10;;;1.10;;
4049;SDS011;2039;50.894;6.888;2024-02-26T03:45:54;13.50;;;1.30;;
4049;SDS011;2039;50.894;6.888;2024-02-26T03:48:19;15.10;;;1.33;;
4049;SDS011;2039;50.894;6.888;2024-02-26T03:50:45;14.43;;;1.37;;
4049;SDS011;2039;50.894;6.888;2024-02-26T03:53:11;13.07;;;1.30;;
4049;SDS011;2039;50.894;6.888;2024-02-26T03:55:37;13.57;;;1.40;;
4049;SDS011;2039;50.894;6.888;2024-02-26T03:58:03;14.57;;;1.67;;
4049;SDS011;2039;50.894;6.888;2024-02-26T04:00:29;13.70;;;1.40;;
4049;SDS011;2039;50.894;6.888;2024-02-26T04:02:55;13.37;;;1.37;;
4049;SDS011;2039;50.894;6.888;2024-02-26T04:05:20;15.27;;;1.40;;
4049;SDS011;2039;50.894;6.888;2024-02-26T04:07:46;13.30;;;1.23;;
4049;SDS011;2039;50.894;6.888;2024-02-26T04:10:12;12.57;;;0.80;;
4049;SDS011;2039;50.894;6.888;2024-02-26T04:12:38;13.50;;;1.50;;
4049;SDS011;2039;50.894;6.888;2024-02-26T04:15:06;15.35;;;1.40;;
4049;SDS011;2039;50.894;6.888;2024-02-26T04:17:32;15.88;;;1.40;;
4049;SDS011;2039;50.894;6.888;2024-02-26T04:19:58;13.80;;;1.63;;
4049;SDS011;2039;50.894;6.888;2024-02-26T04:22:27;13.57;;;1.38;;
4049;SDS011;2039;50.894;6.888;2024-02-26T04:24:52;13.40;;;1.23;;
4049;SDS011;2039;50.894;6.888;2024-02-26T04:27:18;13.90;;;1.60;;
4049;SDS011;2039;50.894;6.888;2024-02-26T04:29:43;13.60;;;1.37;;
4049;SDS011;2039;50.894;6.888;2024-02-26T04:32:09;13.10;;;1.30;;
4049;SDS011;2039;50.894;6.888;2024-02-26T04:34:35;14.67;;;1.30;;
4049;SDS011;2039;50.894;6.888;2024-02-26T04:37:00;13.30;;;1.30;;
4049;SDS011;2039;50.894;6.888;2024-02-26T04:39:26;19.80;;;1.80;;
4049;SDS011;2039;50.894;6.888;2024-02-26T04:41:52;13.53;;;1.13;;
4049;SDS011;2039;50.894;6.888;2024-02-26T04:44:17;13.80;;;1.33;;
4049;SDS011;2039;50.894;6.888;2024-02-26T04:46:43;13.20;;;1.40;;
4049;SDS011;2039;50.894;6.888;2024-02-26T04:49:09;16.00;;;1.90;;
4049;SDS011;2039;50.894;6.888;2024-02-26T04:51:34;13.17;;;1.30;;
4049;SDS011;2039;50.894;6.888;2024-02-26T04:54:00;14.30;;;1.63;;
4049;SDS011;2039;50.894;6.888;2024-02-26T04:56:25;22.10;;;1.57;;
4049;SDS011;2039;50.894;6.888;2024-02-26T04:58:51;14.20;;;1.60;;
4049;SDS011;2039;50.894;6.888;2024-02-26T05:01:20;14.60;;;1.60;;
4049;SDS011;2039;50.894;6.888;2024-02-26T05:03:46;14.15;;;1.42;;
4049;SDS011;2039;50.894;6.888;2024-02-26T05:06:11;15.10;;;1.70;;
4049;SDS011;2039;50.894;6.888;2024-02-26T05:08:38;14.10;;;1.70;;
4049;SDS011;2039;50.894;6.888;2024-02-26T05:11:04;13.50;;;1.63;;
4049;SDS011;2039;50.894;6.888;2024-02-26T05:13:31;18.98;;;1.67;;
4049;SDS011;2039;50.894;6.888;2024-02-26T05:15:57;14.05;;;1.33;;
4049;SDS011;2039;50.894;6.888;2024-02-26T05:18:23;12.87;;;1.20;;
4049;SDS011;2039;50.894;6.888;2024-02-26T05:20:48;13.90;;;1.70;;
4049;SDS011;2039;50.894;6.888;2024-02-26T05:23:14;14.80;;;1.67;;
4049;SDS011;2039;50.894;6.888;2024-02-26T05:25:40;13.33;;;1.60;;
4049;SDS011;2039;50.894;6.888;2024-02-26T05:28:06;13.55;;;1.80;;
4049;SDS011;2039;50.894;6.888;2024-02-26T05:30:32;14.77;;;1.47;;
4049;SDS011;2039;50.894;6.888;2024-02-26T05:32:57;14.43;;;1.73;;
4049;SDS011;2039;50.894;6.888;2024-02-26T05:35:23;13.27;;;1.27;;
4049;SDS011;2039;50.894;6.888;2024-02-26T05:37:50;13.25;;;1.70;;
4049;SDS011;2039;50.894;6.888;2024-02-26T05:40:16;13.30;;;1.60;;
4049;SDS011;2039;50.894;6.888;2024-02-26T05:42:42;14.50;;;1.70;;
4049;SDS011;2039;50.894;6.888;2024-02-26T05:45:10;13.80;;;1.63;;
4049;SDS011;2039;50.894;6.888;2024-02-26T05:47:36;14.40;;;1.67;;
4049;SDS011;2039;50.894;6.888;2024-02-26T05:50:07;14.82;;;1.95;;
4049;SDS011;2039;50.894;6.888;2024-02-26T05:52:37;14.23;;;2.13;;
4049;SDS011;2039;50.894;6.888;2024-02-26T05:55:04;15.27;;;1.67;;
4049;SDS011;2039;50.894;6.888;2024-02-26T05:57:30;13.93;;;1.90;;
4049;SDS011;2039;50.894;6.888;2024-02-26T05:59:57;14.23;;;2.00;;
4049;SDS011;2039;50.894;6.888;2024-02-26T06:02:25;13.80;;;1.77;;
4049;SDS011;2039;50.894;6.888;2024-02-26T06:04:51;14.50;;;1.83;;
4049;SDS011;2039;50.894;6.888;2024-02-26T06:07:17;13.80;;;1.97;;
4049;SDS011;2039;50.894;6.888;2024-02-26T06:09:42;14.47;;;1.90;;
4049;SDS011;2039;50.894;6.888;2024-02-26T06:12:08;14.20;;;1.60;;
4049;SDS011;2039;50.894;6.888;2024-02-26T06:14:34;17.13;;;2.30;;
4049;SDS011;2039;50.894;6.888;2024-02-26T06:16:59;14.30;;;2.20;;
4049;SDS011;2039;50.894;6.888;2024-02-26T06:19:25;16.87;;;2.20;;
4049;SDS011;2039;50.894;6.888;2024-02-26T06:21:50;14.30;;;1.80;;
4049;SDS011;2039;50.894;6.888;2024-02-26T06:24:16;14.00;;;1.93;;
4049;SDS011;2039;50.894;6.888;2024-02-26T06:26:42;15.33;;;1.83;;
4049;SDS011;2039;50.894;6.888;2024-02-26T06:29:07;13.87;;;1.73;;
4049;SDS011;2039;50.894;6.888;2024-02-26T06:31:33;13.80;;;1.87;;
4049;SDS011;2039;50.894;6.888;2024-02-26T06:33:59;15.23;;;2.80;;
4049;SDS011;2039;50.894;6.888;2024-02-26T06:36:24;14.20;;;2.13;;
4049;SDS011;2039;50.894;6.888;2024-02-26T06:38:51;14.13;;;2.05;;
4049;SDS011;2039;50.894;6.888;2024-02-26T06:41:19;15.88;;;2.05;;
4049;SDS011;2039;50.894;6.888;2024-02-26T06:43:44;17.83;;;1.77;;
4049;SDS011;2039;50.894;6.888;2024-02-26T06:46:10;15.20;;;2.40;;
4049;SDS011;2039;50.894;6.888;2024-02-26T06:48:36;15.90;;;2.00;;
4049;SDS011;2039;50.894;6.888;2024-02-26T06:51:02;16.20;;;2.40;;
4049;SDS011;2039;50.894;6.888;2024-02-26T06:53:28;14.63;;;2.20;;
4049;SDS011;2039;50.894;6.888;2024-02-26T06:55:53;15.17;;;1.90;;
4049;SDS011;2039;50.894;6.888;2024-02-26T06:58:19;14.50;;;2.20;;
4049;SDS011;2039;50.894;6.888;2024-02-26T07:00:45;15.17;;;2.20;;
4049;SDS011;2039;50.894;6.888;2024-02-26T07:03:11;14.30;;;2.25;;
4049;SDS011;2039;50.894;6.888;2024-02-26T07:05:38;13.60;;;2.10;;
4049;SDS011;2039;50.894;6.888;2024-02-26T07:08:04;16.13;;;2.30;;
4049;SDS011;2039;50.894;6.888;2024-02-26T07:10:30;14.82;;;2.50;;
4049;SDS011;2039;50.894;6.888;2024-02-26T07:12:56;16.13;;;2.83;;
4049;SDS011;2039;50.894;6.888;2024-02-26T07:15:22;14.53;;;2.33;;
4049;SDS011;2039;50.894;6.888;2024-02-26T07:17:47;14.77;;;2.20;;
4049;SDS011;2039;50.894;6.888;2024-02-26T07:20:14;14.40;;;2.30;;
4049;SDS011;2039;50.894;6.888;2024-02-26T07:22:40;14.20;;;2.00;;
4049;SDS011;2039;50.894;6.888;2024-02-26T07:25:07;14.35;;;1.80;;
4049;SDS011;2039;50.894;6.888;2024-02-26T07:27:33;14.18;;;1.77;;
4049;SDS011;2039;50.894;6.888;2024-02-26T07:29:59;16.23;;;2.50;;
4049;SDS011;2039;50.894;6.888;2024-02-26T07:32:25;14.77;;;2.20;;
4049;SDS011;2039;50.894;6.888;2024-02-26T07:34:51;15.47;;;1.93;;
4049;SDS011;2039;50.894;6.888;2024-02-26T07:37:16;16.17;;;1.67;;
4049;SDS011;2039;50.894;6.888;2024-02-26T07:39:42;13.80;;;1.70;;
4049;SDS011;2039;50.894;6.888;2024-02-26T07:42:08;14.67;;;2.07;;
4049;SDS011;2039;50.894;6.888;2024-02-26T07:44:34;15.80;;;2.70;;
4049;SDS011;2039;50.894;6.888;2024-02-26T07:46:59;13.73;;;1.80;;
4049;SDS011;2039;50.894;6.888;2024-02-26T07:52:13;14.00;;;1.95;;
4049;SDS011;2039;50.894;6.888;2024-02-26T07:54:39;13.90;;;1.80;;
4049;SDS011;2039;50.894;6.888;2024-02-26T07:57:04;14.00;;;2.20;;
4049;SDS011;2039;50.894;6.888;2024-02-26T07:59:31;15.50;;;2.30;;
4049;SDS011;2039;50.894;6.888;2024-02-26T08:01:57;15.20;;;2.22;;
4049;SDS011;2039;50.894;6.888;2024-02-26T08:04:22;14.10;;;2.03;;
4049;SDS011;2039;50.894;6.888;2024-02-26T08:06:48;14.60;;;2.23;;
4049;SDS011;2039;50.894;6.888;2024-02-26T08:09:14;14.23;;;2.33;;
4049;SDS011;2039;50.894;6.888;2024-02-26T08:11:39;14.83;;;2.30;;
4049;SDS011;2039;50.894;6.888;2024-02-26T08:14:05;15.90;;;2.33;;
4049;SDS011;2039;50.894;6.888;2024-02-26T08:16:31;13.80;;;2.00;;
4049;SDS011;2039;50.894;6.888;2024-02-26T08:18:56;15.60;;;2.23;;
4049;SDS011;2039;50.894;6.888;2024-02-26T08:21:22;14.77;;;1.88;;
4049;SDS011;2039;50.894;6.888;2024-02-26T08:23:48;17.97;;;2.40;;
4049;SDS011;2039;50.894;6.888;2024-02-26T08:26:14;14.00;;;2.60;;
4049;SDS011;2039;50.894;6.888;2024-02-26T08:28:39;15.07;;;2.23;;
4049;SDS011;2039;50.894;6.888;2024-02-26T08:31:05;14.93;;;2.13;;
4049;SDS011;2039;50.894;6.888;2024-02-26T08:33:31;15.43;;;2.20;;
4049;SDS011;2039;50.894;6.888;2024-02-26T08:35:59;14.85;;;2.10;;
4049;SDS011;2039;50.894;6.888;2024-02-26T08:38:29;14.10;;;2.20;;
4049;SDS011;2039;50.894;6.888;2024-02-26T08:40:54;16.53;;;2.27;;
4049;SDS011;2039;50.894;6.888;2024-02-26T08:43:20;15.80;;;2.17;;
4049;SDS011;2039;50.894;6.888;2024-02-26T08:45:46;14.03;;;2.30;;
4049;SDS011;2039;50.894;6.888;2024-02-26T08:48:11;15.57;;;2.23;;
4049;SDS011;2039;50.894;6.888;2024-02-26T08:50:37;14.50;;;2.10;;
4049;SDS011;2039;50.894;6.888;2024-02-26T08:53:03;14.73;;;2.23;;
4049;SDS011;2039;50.894;6.888;2024-02-26T08:55:29;15.25;;;2.22;;
4049;SDS011;2039;50.894;6.888;2024-02-26T08:57:54;14.13;;;2.23;;
4049;SDS011;2039;50.894;6.888;2024-02-26T09:00:23;17.58;;;2.25;;
4049;SDS011;2039;50.894;6.888;2024-02-26T09:02:48;15.60;;;2.33;;
4049;SDS011;2039;50.894;6.888;2024-02-26T09:05:14;16.10;;;2.10;;
4049;SDS011;2039;50.894;6.888;2024-02-26T09:07:40;14.60;;;2.38;;
4049;SDS011;2039;50.894;6.888;2024-02-26T09:10:06;14.70;;;1.80;;
4049;SDS011;2039;50.894;6.888;2024-02-26T09:12:36;14.55;;;2.30;;
4049;SDS011;2039;50.894;6.888;2024-02-26T09:15:02;14.23;;;2.10;;
4049;SDS011;2039;50.894;6.888;2024-02-26T09:17:28;15.55;;;2.50;;
4049;SDS011;2039;50.894;6.888;2024-02-26T09:19:54;17.60;;;2.47;;
4049;SDS011;2039;50.894;6.888;2024-02-26T09:22:20;15.50;;;1.97;;
4049;SDS011;2039;50.894;6.888;2024-02-26T09:24:46;15.80;;;2.60;;
4049;SDS011;2039;50.894;6.888;2024-02-26T09:27:11;15.37;;;2.53;;
4049;SDS011;2039;50.894;6.888;2024-02-26T09:29:37;15.00;;;2.37;;
4049;SDS011;2039;50.894;6.888;2024-02-26T09:32:03;15.17;;;2.40;;
4049;SDS011;2039;50.894;6.888;2024-02-26T09:34:29;14.90;;;2.40;;
4049;SDS011;2039;50.894;6.888;2024-02-26T09:36:54;14.00;;;1.93;;
4049;SDS011;2039;50.894;6.888;2024-02-26T09:39:20;14.70;;;2.50;;
4049;SDS011;2039;50.894;6.888;2024-02-26T09:41:47;15.43;;;2.80;;
4049;SDS011;2039;50.894;6.888;2024-02-26T09:44:14;15.18;;;2.35;;
4049;SDS011;2039;50.894;6.888;2024-02-26T09:46:45;15.10;;;2.90;;
4049;SDS011;2039;50.894;6.888;2024-02-26T09:49:18;15.55;;;2.40;;
4049;SDS011;2039;50.894;6.888;2024-02-26T09:51:47;15.50;;;2.70;;
4049;SDS011;2039;50.894;6.888;2024-02-26T09:54:15;14.80;;;2.63;;
4049;SDS011;2039;50.894;6.888;2024-02-26T09:56:41;15.80;;;2.45;;
4049;SDS011;2039;50.894;6.888;2024-02-26T09:59:13;15.65;;;2.47;;
4049;SDS011;2039;50.894;6.888;2024-02-26T10:01:47;17.85;;;2.85;;
4049;SDS011;2039;50.894;6.888;2024-02-26T10:04:13;15.20;;;2.55;;
4049;SDS011;2039;50.894;6.888;2024-02-26T10:06:40;14.35;;;2.28;;
4049;SDS011;2039;50.894;6.888;2024-02-26T10:09:08;15.40;;;2.70;;
4049;SDS011;2039;50.894;6.888;2024-02-26T10:11:35;15.57;;;2.63;;
4049;SDS011;2039;50.894;6.888;2024-02-26T10:14:03;16.02;;;3.17;;
4049;SDS011;2039;50.894;6.888;2024-02-26T10:16:29;15.87;;;3.17;;
4049;SDS011;2039;50.894;6.888;2024-02-26T10:18:55;15.30;;;3.10;;
4049;SDS011;2039;50.894;6.888;2024-02-26T10:21:21;17.90;;;2.40;;
4049;SDS011;2039;50.894;6.888;2024-02-26T10:23:47;14.90;;;2.55;;
4049;SDS011;2039;50.894;6.888;2024-02-26T10:26:14;15.95;;;2.85;;
4049;SDS011;2039;50.894;6.888;2024-02-26T10:28:44;15.73;;;3.10;;
4049;SDS011;2039;50.894;6.888;2024-02-26T10:31:10;16.13;;;2.75;;
4049;SDS011;2039;50.894;6.888;2024-02-26T10:33:37;15.57;;;3.08;;
4049;SDS011;2039;50.894;6.888;2024-02-26T10:36:04;15.00;;;2.50;;
4049;SDS011;2039;50.894;6.888;2024-02-26T10:38:31;17.30;;;3.00;;
4049;SDS011;2039;50.894;6.888;2024-02-26T10:40:57;16.40;;;2.88;;
4049;SDS011;2039;50.894;6.888;2024-02-26T10:43:25;15.63;;;3.00;;
4049;SDS011;2039;50.894;6.888;2024-02-26T10:45:51;15.00;;;2.80;;
4049;SDS011;2039;50.894;6.888;2024-02-26T10:48:16;15.23;;;3.00;;
4049;SDS011;2039;50.894;6.888;2024-02-26T10:50:43;15.00;;;2.30;;
4049;SDS011;2039;50.894;6.888;2024-02-26T10:53:28;14.70;;;2.60;;
4049;SDS011;2039;50.894;6.888;2024-02-26T10:56:03;17.52;;;2.92;;
4049;SDS011;2039;50.894;6.888;2024-02-26T10:58:32;16.85;;;3.13;;
4049;SDS011;2039;50.894;6.888;2024-02-26T11:00:59;14.77;;;2.80;;
4049;SDS011;2039;50.894;6.888;2024-02-26T11:03:26;17.58;;;2.70;;
4049;SDS011;2039;50.894;6.888;2024-02-26T11:05:53;16.08;;;2.70;;
4049;SDS011;2039;50.894;6.888;2024-02-26T11:08:21;14.18;;;1.95;;
4049;SDS011;2039;50.894;6.888;2024-02-26T11:10:48;14.73;;;2.63;;
4049;SDS011;2039;50.894;6.888;2024-02-26T11:13:18;14.75;;;2.80;;
4049;SDS011;2039;50.894;6.888;2024-02-26T11:15:46;18.10;;;2.78;;
4049;SDS011;2039;50.894;6.888;2024-02-26T11:18:14;15.05;;;2.47;;
4049;SDS011;2039;50.894;6.888;2024-02-26T11:20:41;14.25;;;2.50;;
4049;SDS011;2039;50.894;6.888;2024-02-26T11:23:08;16.15;;;3.00;;
4049;SDS011;2039;50.894;6.888;2024-02-26T11:25:37;13.87;;;2.33;;
4049;SDS011;2039;50.894;6.888;2024-02-26T11:28:05;17.70;;;2.63;;
4049;SDS011;2039;50.894;6.888;2024-02-26T11:30:38;18.05;;;2.80;;
4049;SDS011;2039;50.894;6.888;2024-02-26T11:33:08;16.00;;;3.25;;
4049;SDS011;2039;50.894;6.888;2024-02-26T11:35:37;17.08;;;2.80;;
4049;SDS011;2039;50.894;6.888;2024-02-26T11:38:04;17.80;;;3.42;;
4049;SDS011;2039;50.894;6.888;2024-02-26T11:40:31;16.33;;;2.65;;
4049;SDS011;2039;50.894;6.888;2024-02-26T11:42:58;19.77;;;2.63;;
4049;SDS011;2039;50.894;6.888;2024-02-26T11:48:14;17.27;;;3.35;;
4049;SDS011;2039;50.894;6.888;2024-02-26T11:50:45;14.95;;;2.90;;
4049;SDS011;2039;50.894;6.888;2024-02-26T11:53:25;14.88;;;2.35;;
4049;SDS011;2039;50.894;6.888;2024-02-26T11:59:03;18.85;;;2.97;;
4049;SDS011;2039;50.894;6.888;2024-02-26T12:06:45;16.38;;;2.70;;
4049;SDS011;2039;50.894;6.888;2024-02-26T12:11:57;16.75;;;2.75;;
4049;SDS011;2039;50.894;6.888;2024-02-26T12:14:26;15.97;;;2.83;;
4049;SDS011;2039;50.894;6.888;2024-02-26T12:16:52;15.65;;;2.78;;
4049;SDS011;2039;50.894;6.888;2024-02-26T12:19:18;14.32;;;2.25;;
4049;SDS011;2039;50.894;6.888;2024-02-26T12:21:44;14.20;;;2.33;;
4049;SDS011;2039;50.894;6.888;2024-02-26T12:24:10;14.97;;;2.40;;
4049;SDS011;2039;50.894;6.888;2024-02-26T12:26:37;15.20;;;2.92;;
4049;SDS011;2039;50.894;6.888;2024-02-26T12:29:03;15.70;;;2.83;;
4049;SDS011;2039;50.894;6.888;2024-02-26T12:31:29;14.50;;;2.50;;
4049;SDS011;2039;50.894;6.888;2024-02-26T12:33:58;15.18;;;2.60;;
4049;SDS011;2039;50.894;6.888;2024-02-26T12:36:27;16.50;;;2.63;;
4049;SDS011;2039;50.894;6.888;2024-02-26T12:38:53;14.93;;;3.17;;
4049;SDS011;2039;50.894;6.888;2024-02-26T12:41:20;14.07;;;2.60;;
4049;SDS011;2039;50.894;6.888;2024-02-26T12:43:47;15.60;;;2.47;;
4049;SDS011;2039;50.894;6.888;2024-02-26T12:46:13;17.73;;;3.27;;
4049;SDS011;2039;50.894;6.888;2024-02-26T12:48:42;17.45;;;3.72;;
4049;SDS011;2039;50.894;6.888;2024-02-26T12:51:08;16.58;;;3.75;;
4049;SDS011;2039;50.894;6.888;2024-02-26T12:53:35;15.57;;;3.35;;
4049;SDS011;2039;50.894;6.888;2024-02-26T12:56:01;18.60;;;2.77;;
4049;SDS011;2039;50.894;6.888;2024-02-26T12:58:28;16.05;;;3.10;;
4049;SDS011;2039;50.894;6.888;2024-02-26T13:00:56;16.15;;;3.25;;
4049;SDS011;2039;50.894;6.888;2024-02-26T13:03:22;15.43;;;3.13;;
4049;SDS011;2039;50.894;6.888;2024-02-26T13:05:48;15.90;;;3.20;;
4049;SDS011;2039;50.894;6.888;2024-02-26T13:08:21;17.45;;;3.58;;
4049;SDS011;2039;50.894;6.888;2024-02-26T13:10:47;15.77;;;2.65;;
4049;SDS011;2039;50.894;6.888;2024-02-26T13:13:17;14.82;;;3.00;;
4049;SDS011;2039;50.894;6.888;2024-02-26T13:15:45;15.18;;;2.75;;
4049;SDS011;2039;50.894;6.888;2024-02-26T13:18:11;14.77;;;2.90;;
4049;SDS011;2039;50.894;6.888;2024-02-26T13:20:39;16.75;;;3.47;;
4049;SDS011;2039;50.894;6.888;2024-02-26T13:23:06;15.68;;;3.13;;
4049;SDS011;2039;50.894;6.888;2024-02-26T13:25:33;16.90;;;3.97;;
4049;SDS011;2039;50.894;6.888;2024-02-26T13:30:41;16.17;;;3.10;;
4049;SDS011;2039;50.894;6.888;2024-02-26T13:33:07;16.60;;;3.75;;
4049;SDS011;2039;50.894;6.888;2024-02-26T13:35:34;16.80;;;3.10;;
4049;SDS011;2039;50.894;6.888;2024-02-26T13:38:01;15.70;;;3.50;;
4049;SDS011;2039;50.894;6.888;2024-02-26T13:40:27;17.30;;;2.65;;
4049;SDS011;2039;50.894;6.888;2024-02-26T13:42:54;14.57;;;2.70;;
4049;SDS011;2039;50.894;6.888;2024-02-26T13:45:19;15.00;;;2.60;;
4049;SDS011;2039;50.894;6.888;2024-02-26T13:47:45;15.67;;;2.77;;
4049;SDS011;2039;50.894;6.888;2024-02-26T13:50:11;15.00;;;3.10;;
4049;SDS011;2039;50.894;6.888;2024-02-26T13:52:36;19.63;;;3.40;;
4049;SDS011;2039;50.894;6.888;2024-02-26T13:55:02;15.40;;;2.90;;
4049;SDS011;2039;50.894;6.888;2024-02-26T13:57:28;16.33;;;3.03;;
4049;SDS011;2039;50.894;6.888;2024-02-26T13:59:54;14.90;;;3.35;;
4049;SDS011;2039;50.894;6.888;2024-02-26T14:02:21;17.05;;;3.05;;
4049;SDS011;2039;50.894;6.888;2024-02-26T14:04:46;15.85;;;2.78;;
4049;SDS011;2039;50.894;6.888;2024-02-26T14:07:12;17.00;;;3.37;;
4049;SDS011;2039;50.894;6.888;2024-02-26T14:09:38;16.30;;;3.40;;
4049;SDS011;2039;50.894;6.888;2024-02-26T14:12:04;16.43;;;3.40;;
4049;SDS011;2039;50.894;6.888;2024-02-26T14:14:30;17.63;;;4.40;;
4049;SDS011;2039;50.894;6.888;2024-02-26T14:17:03;16.23;;;3.53;;
4049;SDS011;2039;50.894;6.888;2024-02-26T14:19:29;17.67;;;3.90;;
4049;SDS011;2039;50.894;6.888;2024-02-26T14:21:54;18.07;;;4.27;;
4049;SDS011;2039;50.894;6.888;2024-02-26T14:24:20;16.67;;;3.40;;
4049;SDS011;2039;50.894;6.888;2024-02-26T14:26:46;16.17;;;3.33;;
4049;SDS011;2039;50.894;6.888;2024-02-26T14:29:11;17.97;;;4.27;;
4049;SDS011;2039;50.894;6.888;2024-02-26T14:31:37;16.13;;;4.13;;
4049;SDS011;2039;50.894;6.888;2024-02-26T14:34:03;15.90;;;4.00;;
4049;SDS011;2039;50.894;6.888;2024-02-26T14:36:28;17.57;;;4.00;;
4049;SDS011;2039;50.894;6.888;2024-02-26T14:38:54;17.30;;;4.70;;
4049;SDS011;2039;50.894;6.888;2024-02-26T14:41:20;17.63;;;4.53;;
4049;SDS011;2039;50.894;6.888;2024-02-26T14:43:45;19.20;;;4.57;;
4049;SDS011;2039;50.894;6.888;2024-02-26T14:46:11;17.97;;;4.53;;
4049;SDS011;2039;50.894;6.888;2024-02-26T14:48:37;17.13;;;4.30;;
4049;SDS011;2039;50.894;6.888;2024-02-26T14:51:03;22.07;;;6.43;;
4049;SDS011;2039;50.894;6.888;2024-02-26T14:53:31;19.70;;;5.90;;
4049;SDS011;2039;50.894;6.888;2024-02-26T14:55:57;17.67;;;5.60;;
4049;SDS011;2039;50.894;6.888;2024-02-26T14:58:26;20.42;;;6.20;;
4049;SDS011;2039;50.894;6.888;2024-02-26T15:00:51;20.03;;;6.90;;
4049;SDS011;2039;50.894;6.888;2024-02-26T15:03:17;23.60;;;7.20;;
4049;SDS011;2039;50.894;6.888;2024-02-26T15:05:43;26.37;;;7.93;;
4049;SDS011;2039;50.894;6.888;2024-02-26T15:08:08;20.37;;;6.20;;
4049;SDS011;2039;50.894;6.888;2024-02-26T15:10:35;16.55;;;4.20;;
4049;SDS011;2039;50.894;6.888;2024-02-26T15:13:01;18.60;;;4.77;;
4049;SDS011;2039;50.894;6.888;2024-02-26T15:15:26;17.70;;;5.70;;